Time,TemperatureF,DewpointF,PressureIn,WindDirection,WindDirectionDegrees,WindSpeedMPH,WindSpeedGustMPH,Humidity,HourlyPrecipIn,Conditions,Clouds,dailyrainin,SoftwareType,DateUTC
2013-09-04 00:01:00,-999.0,-99.9,29.80,SSW,200,0.0,-999.0,-999,-99.99,,,0.00,weatherlink.com 1.10,2013-09-04 04:01:00,
2013-09-04 00:16:00,-999.0,-99.9,29.80,SSW,200,0.0,-999.0,-999,-99.99,,,0.00,weatherlink.com 1.10,2013-09-04 04:16:00,
2013-09-04 00:31:00,-999.0,-99.9,29.80,SSW,200,2.0,-999.0,-999,-99.99,,,0.00,weatherlink.com 1.10,2013-09-04 04:31:00,
2013-09-04 00:46:00,-999.0,-99.9,29.80,SSW,200,0.0,-999.0,-999,-99.99,,,0.00,weatherlink.com 1.10,2013-09-04 04:46:00,
2013-09-04 01:16:00,-999.0,-99.9,29.81,SSW,200,0.0,-999.0,-999,-99.99,,,0.00,weatherlink.com 1.10,2013-09-04 05:16:00,
2013-09-04 01:31:00,-999.0,-99.9,29.81,SSW,200,0.0,-999.0,-999,-99.99,,,0.00,weatherlink.com 1.10,2013-09-04 05:31:00,
2013-09-04 01:46:00,-999.0,-99.9,29.81,SSW,200,0.0,-999.0,-999,-99.99,,,0.00,weatherlink.com 1.10,2013-09-04 05:46:00,
2013-09-04 02:01:00,-999.0,-99.9,29.81,SSW,200,0.0,-999.0,-999,-99.99,,,0.00,weatherlink.com 1.10,2013-09-04 06:01:00,
2013-09-04 02:16:00,-999.0,-99.9,29.81,SSW,200,0.0,-999.0,-999,-99.99,,,0.00,weatherlink.com 1.10,2013-09-04 06:16:00,
2013-09-04 02:31:00,-999.0,-99.9,29.81,SSW,200,0.0,-999.0,-999,-99.99,,,0.00,weatherlink.com 1.10,2013-09-04 06:31:00,
2013-09-04 02:46:00,-999.0,-99.9,29.81,SSW,200,0.0,-999.0,-999,-99.99,,,0.00,weatherlink.com 1.10,2013-09-04 06:46:00,
2013-09-04 03:01:00,-999.0,-99.9,29.81,SSW,200,0.0,-999.0,-999,-99.99,,,0.00,weatherlink.com 1.10,2013-09-04 07:01:00,
2013-09-04 03:16:00,-999.0,-99.9,29.81,SSW,200,0.0,-999.0,-999,-99.99,,,0.00,weatherlink.com 1.10,2013-09-04 07:16:00,
2013-09-04 03:31:00,-999.0,-99.9,29.82,SSW,200,0.0,-999.0,-999,-99.99,,,0.00,weatherlink.com 1.10,2013-09-04 07:31:00,
2013-09-04 03:46:00,-999.0,-99.9,29.82,SSW,200,0.0,-999.0,-999,-99.99,,,0.00,weatherlink.com 1.10,2013-09-04 07:46:00,
2013-09-04 04:01:00,-999.0,-99.9,29.82,SSW,200,2.0,-999.0,-999,-99.99,,,0.00,weatherlink.com 1.10,2013-09-04 08:01:00,
2013-09-04 04:16:00,-999.0,-99.9,29.82,SSW,200,1.0,-999.0,-999,-99.99,,,0.00,weatherlink.com 1.10,2013-09-04 08:16:00,
2013-09-04 04:31:00,-999.0,-99.9,29.83,SSW,200,1.0,-999.0,-999,-99.99,,,0.00,weatherlink.com 1.10,2013-09-04 08:31:00,
2013-09-04 04:46:00,-999.0,-99.9,29.83,SSW,200,0.0,-999.0,-999,-99.99,,,0.00,weatherlink.com 1.10,2013-09-04 08:46:00,
2013-09-04 05:01:00,-999.0,-99.9,29.83,SSW,200,1.0,-999.0,-999,-99.99,,,0.00,weatherlink.com 1.10,2013-09-04 09:01:00,
2013-09-04 05:16:00,-999.0,-99.9,29.84,SSW,200,1.0,-999.0,-999,-99.99,,,0.00,weatherlink.com 1.10,2013-09-04 09:16:00,
2013-09-04 05:31:00,-999.0,-99.9,29.84,SSW,200,0.0,-999.0,-999,-99.99,,,0.00,weatherlink.com 1.10,2013-09-04 09:31:00,
2013-09-04 05:46:00,-999.0,-99.9,29.84,SSW,200,0.0,-999.0,-999,-99.99,,,0.00,weatherlink.com 1.10,2013-09-04 09:46:00,
2013-09-04 06:01:00,-999.0,-99.9,29.85,SSW,200,0.0,-999.0,-999,-99.99,,,0.00,weatherlink.com 1.10,2013-09-04 10:01:00,
2013-09-04 06:16:00,-999.0,-99.9,29.85,SSW,200,0.0,-999.0,-999,-99.99,,,0.00,weatherlink.com 1.10,2013-09-04 10:16:00,
2013-09-04 06:32:00,-999.0,-99.9,29.86,SSW,200,0.0,-999.0,-999,-99.99,,,0.00,weatherlink.com 1.10,2013-09-04 10:32:00,
2013-09-04 06:46:00,-999.0,-99.9,29.86,SSW,200,0.0,-999.0,-999,-99.99,,,0.00,weatherlink.com 1.10,2013-09-04 10:46:00,
2013-09-04 07:01:00,-999.0,-99.9,29.87,SSW,200,0.0,-999.0,-999,-99.99,,,0.00,weatherlink.com 1.10,2013-09-04 11:01:00,
2013-09-04 07:16:00,-999.0,-99.9,29.87,SSW,200,1.0,-999.0,-999,-99.99,,,0.00,weatherlink.com 1.10,2013-09-04 11:16:00,
2013-09-04 07:31:00,-999.0,-99.9,29.87,SSW,200,0.0,-999.0,-999,-99.99,,,0.00,weatherlink.com 1.10,2013-09-04 11:31:00,
2013-09-04 07:46:00,-999.0,-99.9,29.87,SSW,200,0.0,-999.0,-999,-99.99,,,0.00,weatherlink.com 1.10,2013-09-04 11:46:00,
2013-09-04 08:01:00,-90.0,-99.9,29.89,SSW,200,3.0,-999.0,28,-99.99,,,0.00,weatherlink.com 1.10,2013-09-04 12:01:00,
2013-09-04 08:16:00,-90.0,-99.9,29.90,SSW,200,0.0,-999.0,28,-99.99,,,0.03,weatherlink.com 1.10,2013-09-04 12:16:00,
2013-09-04 08:31:00,-90.0,-99.9,29.91,SSW,200,0.0,-999.0,31,-99.99,,,0.03,weatherlink.com 1.10,2013-09-04 12:31:00,
2013-09-04 08:46:00,64.1,38.0,29.89,SSW,200,0.0,-999.0,39,-99.99,,,0.03,weatherlink.com 1.10,2013-09-04 12:46:00,
2013-09-04 09:01:00,64.7,45.0,29.89,SSW,200,0.0,-999.0,50,-99.99,,,0.03,weatherlink.com 1.10,2013-09-04 13:01:00,
2013-09-04 09:16:00,66.1,51.0,29.90,SSW,200,0.0,-999.0,58,-99.99,,,0.03,weatherlink.com 1.10,2013-09-04 13:16:00,
2013-09-04 09:31:00,67.5,56.0,29.90,SSW,200,0.0,-999.0,67,-99.99,,,0.03,weatherlink.com 1.10,2013-09-04 13:31:00,
2013-09-04 09:46:00,68.0,58.0,29.90,SSW,200,0.0,-999.0,70,-99.99,,,0.03,weatherlink.com 1.10,2013-09-04 13:46:00,
2013-09-04 10:01:00,68.5,59.0,29.90,SW,215,0.0,-999.0,72,-99.99,,,0.03,weatherlink.com 1.10,2013-09-04 14:01:00,
2013-09-04 10:16:00,69.4,60.0,29.89,South,181,3.0,-999.0,72,-99.99,,,0.03,weatherlink.com 1.10,2013-09-04 14:16:00,
2013-09-04 10:31:00,70.1,61.0,29.89,NW,318,3.0,-999.0,73,-99.99,,,0.03,weatherlink.com 1.10,2013-09-04 14:31:00,
2013-09-04 10:46:00,71.1,62.0,29.89,North,360,0.0,-999.0,74,-99.99,,,0.03,weatherlink.com 1.10,2013-09-04 14:46:00,
2013-09-04 11:01:00,71.5,62.0,29.89,SSW,205,0.0,-999.0,73,-99.99,,,0.03,weatherlink.com 1.10,2013-09-04 15:01:00,
2013-09-04 11:16:00,72.1,63.0,29.89,SSW,196,1.0,-999.0,72,-99.99,,,0.03,weatherlink.com 1.10,2013-09-04 15:16:00,
2013-09-04 11:31:00,72.7,63.0,29.89,SSW,200,5.0,-999.0,71,-99.99,,,0.03,weatherlink.com 1.10,2013-09-04 15:31:00,
2013-09-04 11:46:00,73.2,63.0,29.89,SSW,200,0.0,-999.0,70,-99.99,,,0.03,weatherlink.com 1.10,2013-09-04 15:46:00,
2013-09-04 12:01:00,73.7,62.0,29.88,SSW,196,4.0,-999.0,68,-99.99,,,0.03,weatherlink.com 1.10,2013-09-04 16:01:00,
2013-09-04 12:16:00,74.2,63.0,29.88,SSW,205,0.0,-999.0,69,-99.99,,,0.03,weatherlink.com 1.10,2013-09-04 16:16:00,
2013-09-04 12:31:00,75.3,64.0,29.88,SSW,205,0.0,-999.0,67,-99.99,,,0.03,weatherlink.com 1.10,2013-09-04 16:31:00,
2013-09-04 12:46:00,75.1,63.0,29.88,SSW,205,5.0,-999.0,67,-99.99,,,0.03,weatherlink.com 1.10,2013-09-04 16:46:00,
2013-09-04 13:01:00,75.7,64.0,29.88,SSW,210,2.0,-999.0,66,-99.99,,,0.03,weatherlink.com 1.10,2013-09-04 17:01:00,
2013-09-04 13:16:00,76.1,62.0,29.88,SSW,205,4.0,-999.0,62,-99.99,,,0.03,weatherlink.com 1.10,2013-09-04 17:16:00,
2013-09-04 13:31:00,76.7,63.0,29.88,South,186,10.0,-999.0,62,-99.99,,,0.03,weatherlink.com 1.10,2013-09-04 17:31:00,
2013-09-04 13:47:00,76.8,63.0,29.88,SSW,200,4.0,-999.0,62,-99.99,,,0.03,weatherlink.com 1.10,2013-09-04 17:47:00,
2013-09-04 14:01:00,77.2,62.0,29.87,SSW,200,6.0,-999.0,59,-99.99,,,0.03,weatherlink.com 1.10,2013-09-04 18:01:00,
2013-09-04 14:16:00,77.0,62.0,29.87,South,191,6.0,-999.0,61,-99.99,,,0.03,weatherlink.com 1.10,2013-09-04 18:16:00,
2013-09-04 14:31:00,77.5,62.0,29.87,South,187,10.0,-999.0,60,-99.99,,,0.03,weatherlink.com 1.10,2013-09-04 18:31:00,
2013-09-04 14:46:00,78.2,64.0,29.87,SSW,210,1.0,-999.0,61,-99.99,,,0.03,weatherlink.com 1.10,2013-09-04 18:46:00,
2013-09-04 15:01:00,78.4,62.0,29.87,SSW,210,7.0,-999.0,58,-99.99,,,0.03,weatherlink.com 1.10,2013-09-04 19:01:00,
2013-09-04 15:16:00,78.6,62.0,29.87,SSW,196,5.0,-999.0,58,-99.99,,,0.03,weatherlink.com 1.10,2013-09-04 19:16:00,
2013-09-04 15:31:00,78.7,63.0,29.87,SW,215,5.0,-999.0,58,-99.99,,,0.03,weatherlink.com 1.10,2013-09-04 19:31:00,
2013-09-04 15:46:00,78.8,61.0,29.87,SSW,200,5.0,-999.0,55,-99.99,,,0.03,weatherlink.com 1.10,2013-09-04 19:46:00,
2013-09-04 16:01:00,78.8,61.0,29.87,SSW,192,6.0,-999.0,55,-99.99,,,0.03,weatherlink.com 1.10,2013-09-04 20:01:00,
2013-09-04 16:16:00,78.6,62.0,29.87,SSW,205,4.0,-999.0,58,-99.99,,,0.03,weatherlink.com 1.10,2013-09-04 20:16:00,
2013-09-04 16:31:00,78.3,62.0,29.87,SSW,200,1.0,-999.0,57,-99.99,,,0.03,weatherlink.com 1.10,2013-09-04 20:31:00,
2013-09-04 16:46:00,78.7,63.0,29.87,SSW,205,6.0,-999.0,58,-99.99,,,0.03,weatherlink.com 1.10,2013-09-04 20:46:00,
2013-09-04 17:01:00,77.9,63.0,29.86,SSW,205,6.0,-999.0,60,-99.99,,,0.03,weatherlink.com 1.10,2013-09-04 21:01:00,
2013-09-04 17:16:00,77.1,63.0,29.87,SSW,200,5.0,-999.0,61,-99.99,,,0.03,weatherlink.com 1.10,2013-09-04 21:16:00,
2013-09-04 17:31:00,76.9,63.0,29.86,SSW,200,8.0,-999.0,62,-99.99,,,0.03,weatherlink.com 1.10,2013-09-04 21:31:00,
2013-09-04 17:46:00,76.5,63.0,29.87,SSW,205,6.0,-999.0,63,-99.99,,,0.03,weatherlink.com 1.10,2013-09-04 21:46:00,
2013-09-04 18:01:00,76.0,65.0,29.86,SSW,205,3.0,-999.0,68,-99.99,,,0.03,weatherlink.com 1.10,2013-09-04 22:01:00,
2013-09-04 18:16:00,74.4,65.0,29.86,SW,214,8.0,-999.0,72,-99.99,,,0.03,weatherlink.com 1.10,2013-09-04 22:16:00,
2013-09-04 18:31:00,73.3,65.0,29.86,SSW,200,4.0,-999.0,74,-99.99,,,0.03,weatherlink.com 1.10,2013-09-04 22:31:00,
2013-09-04 18:46:00,73.1,64.0,29.86,SSW,200,8.0,-999.0,74,-99.99,,,0.03,weatherlink.com 1.10,2013-09-04 22:46:00,
2013-09-04 19:01:00,-999.0,-99.9,29.89,SSW,200,3.0,-999.0,-999,-99.99,,,0.03,weatherlink.com 1.10,2013-09-04 23:01:00,
2013-09-04 19:16:00,-999.0,-99.9,29.90,SSW,200,2.0,-999.0,-999,-99.99,,,0.03,weatherlink.com 1.10,2013-09-04 23:16:00,
2013-09-04 19:31:00,-999.0,-99.9,29.90,SSW,200,6.0,-999.0,-999,-99.99,,,0.03,weatherlink.com 1.10,2013-09-04 23:31:00,
2013-09-04 19:46:00,-999.0,-99.9,29.90,SSW,200,1.0,-999.0,-999,-99.99,,,0.03,weatherlink.com 1.10,2013-09-04 23:46:00,
2013-09-04 20:01:00,-999.0,-99.9,29.89,SSW,200,3.0,-999.0,-999,-99.99,,,0.03,weatherlink.com 1.10,2013-09-05 00:01:00,
2013-09-04 20:16:00,-999.0,-99.9,29.90,SSW,200,1.0,-999.0,-999,-99.99,,,0.03,weatherlink.com 1.10,2013-09-05 00:16:00,
2013-09-04 20:31:00,-999.0,-99.9,29.90,SSW,200,3.0,-999.0,-999,-99.99,,,0.03,weatherlink.com 1.10,2013-09-05 00:31:00,
2013-09-04 20:46:00,-999.0,-99.9,29.91,SSW,200,4.0,-999.0,-999,-99.99,,,0.03,weatherlink.com 1.10,2013-09-05 00:46:00,
2013-09-04 21:01:00,-999.0,-99.9,29.91,SSW,200,0.0,-999.0,-999,-99.99,,,0.03,weatherlink.com 1.10,2013-09-05 01:01:00,
2013-09-04 21:16:00,-999.0,-99.9,29.91,SSW,200,4.0,-999.0,-999,-99.99,,,0.03,weatherlink.com 1.10,2013-09-05 01:16:00,
2013-09-04 21:31:00,-999.0,-99.9,29.91,SSW,200,4.0,-999.0,-999,-99.99,,,0.03,weatherlink.com 1.10,2013-09-05 01:31:00,
2013-09-04 21:46:00,-999.0,-99.9,29.92,SSW,200,3.0,-999.0,-999,-99.99,,,0.03,weatherlink.com 1.10,2013-09-05 01:46:00,
2013-09-04 22:01:00,-999.0,-99.9,29.92,SSW,200,2.0,-999.0,-999,-99.99,,,0.03,weatherlink.com 1.10,2013-09-05 02:01:00,
2013-09-04 22:16:00,-999.0,-99.9,29.92,SSW,200,0.0,-999.0,-999,-99.99,,,0.03,weatherlink.com 1.10,2013-09-05 02:16:00,
2013-09-04 22:31:00,-999.0,-99.9,29.93,SSW,200,1.0,-999.0,-999,-99.99,,,0.03,weatherlink.com 1.10,2013-09-05 02:31:00,
2013-09-04 22:46:00,-999.0,-99.9,29.93,SSW,200,2.0,-999.0,-999,-99.99,,,0.03,weatherlink.com 1.10,2013-09-05 02:46:00,
2013-09-04 23:01:00,-999.0,-99.9,29.92,SSW,200,0.0,-999.0,-999,-99.99,,,0.03,weatherlink.com 1.10,2013-09-05 03:01:00,
2013-09-04 23:16:00,-999.0,-99.9,29.92,SSW,200,0.0,-999.0,-999,-99.99,,,0.03,weatherlink.com 1.10,2013-09-05 03:16:00,
2013-09-04 23:31:00,-999.0,-99.9,29.93,SSW,200,2.0,-999.0,-999,-99.99,,,0.03,weatherlink.com 1.10,2013-09-05 03:31:00,
2013-09-04 23:46:00,-999.0,-99.9,29.92,SSW,200,3.0,-999.0,-999,-99.99,,,0.03,weatherlink.com 1.10,2013-09-05 03:46:00,